createdAt,value
2022-11-18T00:02:48.500Z,71.50
2022-11-18T00:07:52.100Z,71.40
2022-11-18T00:13:15.761Z,71.10
2022-11-18T00:18:19.172Z,71.10
2022-11-18T00:23:22.804Z,71.00
2022-11-18T00:28:27.589Z,71.00
2022-11-18T00:33:30.988Z,70.90
2022-11-18T00:38:34.553Z,70.60
2022-11-18T00:43:39.710Z,70.60
2022-11-18T00:48:43.380Z,70.60
2022-11-18T00:53:47.166Z,70.40
2022-11-18T00:58:52.089Z,70.40
2022-11-18T01:03:55.829Z,70.30
2022-11-18T01:08:59.663Z,70.00
2022-11-18T01:14:04.461Z,70.20
2022-11-18T01:19:07.912Z,70.20
2022-11-18T01:24:11.269Z,70.10
2022-11-18T01:29:16.332Z,70.10
2022-11-18T01:34:20.105Z,70.10
2022-11-18T01:39:23.509Z,70.10
2022-11-18T01:44:59.538Z,70.00
2022-11-18T01:50:04.400Z,70.10
2022-11-18T01:55:12.501Z,70.10
2022-11-18T02:00:18.236Z,70.00
2022-11-18T02:05:22.794Z,70.00
2022-11-18T02:10:26.270Z,69.80
2022-11-18T02:15:44.596Z,69.70
2022-11-18T02:20:51.325Z,69.50
2022-11-18T02:26:19.803Z,68.80
2022-11-18T02:31:30.207Z,69.30
2022-11-18T02:36:41.408Z,69.70
2022-11-18T02:41:47.227Z,69.80
2022-11-18T02:46:57.377Z,69.80
2022-11-18T02:52:02.753Z,69.90
2022-11-18T02:57:07.037Z,69.80
2022-11-18T03:02:17.516Z,69.90
2022-11-18T03:07:26.773Z,69.70
2022-11-18T03:12:39.584Z,69.70
2022-11-18T03:17:54.446Z,69.70
2022-11-18T03:23:06.669Z,69.80
2022-11-18T03:28:15.902Z,69.60
2022-11-18T03:33:27.356Z,69.90
2022-11-18T03:38:35.203Z,69.90
2022-11-18T03:43:42.577Z,69.70
2022-11-18T03:48:52.781Z,69.90
2022-11-18T03:54:00.218Z,70.00
2022-11-18T03:59:10.629Z,70.00
2022-11-18T04:04:15.928Z,70.00
2022-11-18T04:09:24.895Z,70.00
2022-11-18T04:14:28.579Z,69.90
2022-11-18T04:19:33.307Z,70.00
2022-11-18T04:24:36.757Z,69.90
2022-11-18T04:29:40.175Z,69.90
2022-11-18T04:34:44.877Z,69.90
2022-11-18T04:39:48.247Z,69.80
2022-11-18T04:44:51.899Z,69.70
2022-11-18T04:49:56.699Z,69.80
2022-11-18T04:55:00.088Z,70.00
2022-11-18T05:00:04.037Z,69.90
2022-11-18T05:05:09.526Z,70.00
2022-11-18T05:10:12.886Z,69.80
2022-11-18T05:15:16.853Z,69.70
2022-11-18T05:20:21.704Z,69.60
2022-11-18T05:25:25.070Z,69.50
2022-11-18T05:30:28.431Z,69.70
2022-11-18T05:35:33.335Z,68.80
2022-11-18T05:40:36.755Z,69.30
2022-11-18T05:45:40.684Z,69.30
2022-11-18T05:50:48.270Z,69.00
2022-11-18T05:55:58.055Z,69.20
2022-11-18T06:01:06.869Z,69.00
2022-11-18T06:06:13.939Z,68.70
2022-11-18T06:11:20.044Z,68.50
2022-11-18T06:16:26.352Z,68.80
2022-11-18T06:21:31.690Z,68.90
2022-11-18T06:26:35.136Z,69.00
2022-11-18T06:31:38.915Z,68.90
2022-11-18T06:36:43.764Z,68.90
2022-11-18T06:41:47.134Z,68.70
2022-11-18T06:46:59.559Z,68.60
2022-11-18T06:52:04.332Z,68.20
2022-11-18T06:57:07.757Z,68.10
2022-11-18T07:02:11.369Z,68.20
2022-11-18T07:07:16.439Z,68.60
2022-11-18T07:12:19.952Z,69.40
2022-11-18T07:17:23.414Z,68.40
2022-11-18T07:22:28.556Z,68.00
2022-11-18T07:27:31.905Z,68.10
2022-11-18T07:32:35.321Z,68.20
2022-11-18T07:37:40.042Z,68.00
2022-11-18T07:42:43.632Z,67.80
2022-11-18T07:47:47.002Z,68.00
2022-11-18T07:52:51.806Z,68.20
2022-11-18T07:57:57.480Z,68.20
2022-11-18T08:03:00.910Z,67.60
2022-11-18T08:08:06.088Z,67.70
2022-11-18T08:13:09.745Z,67.50
2022-11-18T08:18:13.997Z,67.20
2022-11-18T08:23:19.035Z,67.10
2022-11-18T08:28:22.554Z,67.40
2022-11-18T08:33:25.985Z,67.50
2022-11-18T08:38:30.663Z,67.10
2022-11-18T08:43:34.118Z,66.60
2022-11-18T08:48:37.544Z,66.60
2022-11-18T08:53:42.386Z,66.70
2022-11-18T08:58:46.309Z,65.90
2022-11-18T09:03:50.156Z,66.40
2022-11-18T09:08:55.406Z,66.00
2022-11-18T09:15:05.839Z,65.40
2022-11-18T09:19:46.075Z,65.30
2022-11-18T09:24:49.124Z,65.10
2022-11-18T09:29:52.542Z,65.30
2022-11-18T09:34:56.165Z,65.20
2022-11-18T09:40:00.907Z,65.40
2022-11-18T09:45:18.140Z,64.90
2022-11-18T09:50:48.377Z,64.80
2022-11-18T09:55:50.604Z,64.50
2022-11-18T10:00:54.399Z,64.40
2022-11-18T10:06:03.700Z,64.10
2022-11-18T10:11:14.875Z,64.10
2022-11-18T10:16:36.435Z,63.70
2022-11-18T10:21:50.644Z,63.50
2022-11-18T10:26:59.402Z,63.10
2022-11-18T10:32:05.644Z,62.50
2022-11-18T10:37:34.481Z,63.60
2022-11-18T10:42:48.292Z,64.00
2022-11-18T10:48:00.114Z,63.30
2022-11-18T10:53:04.388Z,63.40
2022-11-18T10:58:16.207Z,62.40
2022-11-18T11:03:36.769Z,62.60
2022-11-18T11:08:49.605Z,63.00
2022-11-18T11:13:58.614Z,63.00
2022-11-18T11:19:04.983Z,63.20
2022-11-18T11:24:12.540Z,62.60
2022-11-18T11:29:36.921Z,62.30
2022-11-18T11:34:48.058Z,63.30
2022-11-18T11:40:03.732Z,62.20
2022-11-18T11:45:19.824Z,62.40
2022-11-18T11:50:29.405Z,62.20
2022-11-18T11:55:38.460Z,61.90
2022-11-18T12:00:50.574Z,62.20
2022-11-18T12:05:54.037Z,62.10
2022-11-18T12:11:01.560Z,62.20
2022-11-18T12:16:21.581Z,63.00
2022-11-18T12:21:53.811Z,62.20
2022-11-18T12:26:57.682Z,62.30
2022-11-18T12:32:03.133Z,62.20
2022-11-18T12:37:54.281Z,61.70
2022-11-18T12:43:15.065Z,62.20
2022-11-18T12:48:43.955Z,62.40
2022-11-18T12:53:49.576Z,62.50
2022-11-18T12:58:55.203Z,62.60
2022-11-18T13:04:10.137Z,62.70
2022-11-18T13:09:17.980Z,62.70
2022-11-18T13:14:43.584Z,62.80
2022-11-18T13:19:57.894Z,62.60
2022-11-18T13:25:01.528Z,62.50
2022-11-18T13:30:11.459Z,62.40
2022-11-18T13:35:19.386Z,62.30
2022-11-18T13:40:25.841Z,62.50
2022-11-18T13:45:30.872Z,62.00
2022-11-18T13:50:38.360Z,62.10
2022-11-18T13:55:47.359Z,62.50
2022-11-18T14:00:57.429Z,62.00
2022-11-18T14:06:03.153Z,62.10
2022-11-18T14:11:08.029Z,62.10
2022-11-18T14:16:33.612Z,61.50
2022-11-18T14:21:39.205Z,61.70
2022-11-18T14:26:42.660Z,61.80
2022-11-18T14:31:46.031Z,62.00
2022-11-18T14:36:51.603Z,61.70
2022-11-18T14:41:56.149Z,61.50
2022-11-18T14:47:01.344Z,61.20
2022-11-18T14:52:06.347Z,58.60
2022-11-18T14:57:15.768Z,60.00
2022-11-18T15:02:19.272Z,60.30
2022-11-18T15:07:24.431Z,60.30
2022-11-18T15:12:28.216Z,60.20
2022-11-18T15:17:31.657Z,59.80
2022-11-18T15:22:36.401Z,60.10
2022-11-18T15:27:40.283Z,60.20
2022-11-18T15:32:44.465Z,60.10
2022-11-18T15:37:49.657Z,60.20
2022-11-18T15:42:53.043Z,60.30
2022-11-18T15:47:56.413Z,60.30
2022-11-18T15:53:01.153Z,60.50
2022-11-18T15:58:04.548Z,60.70
2022-11-18T16:03:07.932Z,61.00
2022-11-18T16:08:12.670Z,61.10
2022-11-18T16:13:21.314Z,61.10
2022-11-18T16:18:25.440Z,61.30
2022-11-18T16:23:30.415Z,61.20
2022-11-18T16:28:34.075Z,61.10
2022-11-18T16:33:37.484Z,61.10
2022-11-18T16:38:43.026Z,61.00
2022-11-18T16:43:50.004Z,62.00
2022-11-18T16:48:53.687Z,61.10
2022-11-18T16:54:00.144Z,61.10
2022-11-18T16:59:05.657Z,61.10
2022-11-18T17:04:11.453Z,61.20
2022-11-18T17:09:18.435Z,61.30
2022-11-18T17:14:22.860Z,61.40
2022-11-18T17:19:26.571Z,61.70
2022-11-18T17:24:31.557Z,61.80
2022-11-18T17:29:35.107Z,61.70
2022-11-18T17:34:38.451Z,61.70
2022-11-18T17:39:43.143Z,61.90
2022-11-18T17:44:46.856Z,61.90
2022-11-18T17:49:51.365Z,61.70
2022-11-18T17:54:56.229Z,61.60
2022-11-18T17:59:59.641Z,62.00
2022-11-18T18:05:03.037Z,61.80
2022-11-18T18:10:08.523Z,62.20
2022-11-18T18:15:12.003Z,62.30
2022-11-18T18:20:16.039Z,62.50
2022-11-18T18:25:20.830Z,62.60
2022-11-18T18:30:24.232Z,62.70
2022-11-18T18:35:27.656Z,62.60
2022-11-18T18:40:33.562Z,62.70
2022-11-18T18:45:54.502Z,62.80
2022-11-18T18:51:04.669Z,63.00
2022-11-18T18:56:10.055Z,63.20
2022-11-18T19:01:14.895Z,63.10
2022-11-18T19:12:04.750Z,63.30
2022-11-18T19:17:12.728Z,63.40
2022-11-18T19:22:17.004Z,63.40
2022-11-18T19:27:22.687Z,63.40
2022-11-18T19:32:26.381Z,63.60
2022-11-18T19:37:31.188Z,63.70
2022-11-18T19:42:36.812Z,63.80
2022-11-18T19:47:43.594Z,64.10
2022-11-18T19:52:49.389Z,64.40
2022-11-18T19:57:54.495Z,64.70
2022-11-18T20:02:59.094Z,65.00
2022-11-18T20:08:02.525Z,66.00
2022-11-18T20:13:11.344Z,65.00
2022-11-18T20:18:15.400Z,65.10
2022-11-18T20:23:19.270Z,65.20
2022-11-18T20:28:24.331Z,65.10
2022-11-18T20:33:28.126Z,65.00
2022-11-18T20:38:31.551Z,65.10
2022-11-18T20:43:37.173Z,65.00
2022-11-18T20:48:41.033Z,64.80
2022-11-18T20:53:45.124Z,64.70
2022-11-18T20:58:50.241Z,64.80
2022-11-18T21:03:55.130Z,64.80
2022-11-18T21:09:03.848Z,64.70
2022-11-18T21:14:24.339Z,65.70
2022-11-18T21:19:47.384Z,64.60
2022-11-18T21:24:53.791Z,64.40
2022-11-18T21:30:01.352Z,64.30
2022-11-18T21:35:07.681Z,64.30
2022-11-18T21:40:12.724Z,63.90
2022-11-18T21:45:18.295Z,64.10
2022-11-18T21:50:21.747Z,64.30
2022-11-18T21:55:25.433Z,64.10
2022-11-18T22:00:30.225Z,64.10
2022-11-18T22:05:33.678Z,64.10
2022-11-18T22:10:37.204Z,63.60
2022-11-18T22:15:42.238Z,63.60
2022-11-18T22:20:45.931Z,63.30
2022-11-18T22:25:56.756Z,63.50
2022-11-18T22:31:05.002Z,63.10
2022-11-18T22:36:10.809Z,62.80
2022-11-18T22:41:30.650Z,62.60
2022-11-18T22:46:35.846Z,62.40
2022-11-18T22:51:40.541Z,62.40
2022-11-18T22:56:44.010Z,62.60
2022-11-18T23:01:50.827Z,62.30
2022-11-18T23:06:54.590Z,62.10
2022-11-18T23:12:15.720Z,62.20
2022-11-18T23:17:20.782Z,62.20
2022-11-18T23:22:24.194Z,62.00
2022-11-18T23:27:28.916Z,62.00
2022-11-18T23:32:33.726Z,62.00
2022-11-18T23:37:37.153Z,62.10
2022-11-18T23:42:40.576Z,62.10
2022-11-18T23:47:45.243Z,62.00
2022-11-18T23:52:48.558Z,62.10
2022-11-18T23:57:52.196Z,62.10
